Time;durP1;ratioP1;P1;durP2;ratioP2;P2;SDS_P1;SDS_P2;PMS_P1;PMS_P2;Temp;Humidity;BMP_temperature;BMP_pressure;BME280_temperature;BME280_humidity;BME280_pressure;Samples;Min_cycle;Max_cycle;Signal;HPM_P1;HPM_P2
2023/08/06 00:00:20;;;;;;;16.17;10.02;;;15.40;99.90;;;;;;5035358;28;20061;-82
2023/08/06 00:02:45;;;;;;;12.48;9.70;;;15.30;99.90;;;;;;5018021;28;20611;-82
2023/08/06 00:05:11;;;;;;;13.10;9.85;;;15.30;99.90;;;;;;5024981;22;20048;-77
2023/08/06 00:07:40;;;;;;;15.85;9.73;;;15.30;99.90;;;;;;4974247;28;20035;-78
2023/08/06 00:10:06;;;;;;;14.25;10.10;;;15.30;99.90;;;;;;4971898;28;20515;-77
2023/08/06 00:12:32;;;;;;;12.55;10.10;;;15.30;99.90;;;;;;4977117;28;20049;-77
2023/08/06 00:15:04;;;;;;;12.25;9.10;;;15.30;99.90;;;;;;5012213;28;20046;-77
2023/08/06 00:17:29;;;;;;;14.75;9.73;;;15.30;99.90;;;;;;4985229;28;20069;-77
2023/08/06 00:19:55;;;;;;;12.00;9.82;;;15.30;99.90;;;;;;4973965;28;20482;-77
2023/08/06 00:22:21;;;;;;;13.23;10.18;;;15.30;99.90;;;;;;4958430;28;20045;-78
2023/08/06 00:24:46;;;;;;;11.68;9.30;;;15.30;99.90;;;;;;4975432;28;20025;-78
2023/08/06 00:27:12;;;;;;;11.38;9.18;;;15.30;99.90;;;;;;4984047;28;20462;-77
2023/08/06 00:29:41;;;;;;;14.68;9.80;;;15.30;99.90;;;;;;4962875;28;20466;-78
2023/08/06 00:32:06;;;;;;;14.82;9.65;;;15.20;99.90;;;;;;4958208;28;20052;-77
2023/08/06 00:34:35;;;;;;;11.77;9.65;;;15.70;99.90;;;;;;4977738;28;20125;-78
2023/08/06 00:37:01;;;;;;;11.43;9.20;;;15.20;99.90;;;;;;4974516;28;20290;-77
2023/08/06 00:39:26;;;;;;;11.77;9.45;;;15.20;99.90;;;;;;4953680;28;20046;-77
2023/08/06 00:41:52;;;;;;;12.05;9.05;;;15.20;99.90;;;;;;4962334;28;20046;-78
2023/08/06 00:44:18;;;;;;;10.55;8.82;;;15.50;99.90;;;;;;4977047;28;20057;-77
2023/08/06 00:46:43;;;;;;;15.07;9.40;;;15.20;99.90;;;;;;4987880;28;20065;-77
2023/08/06 00:49:09;;;;;;;15.20;9.77;;;15.10;99.90;;;;;;4977303;28;20080;-77
2023/08/06 00:51:35;;;;;;;12.98;9.45;;;15.10;99.90;;;;;;4959030;28;20121;-78
2023/08/06 00:54:02;;;;;;;12.43;9.00;;;15.10;99.90;;;;;;4990910;28;20086;-77
2023/08/06 00:56:29;;;;;;;12.73;9.30;;;15.10;99.90;;;;;;4947183;28;20035;-77
2023/08/06 00:58:55;;;;;;;14.07;9.15;;;15.10;99.90;;;;;;4979961;28;20046;-77
2023/08/06 01:01:21;;;;;;;13.30;9.55;;;15.10;99.90;;;;;;5001706;28;20050;-77
2023/08/06 01:03:46;;;;;;;12.90;9.77;;;15.20;99.90;;;;;;4977671;28;20173;-77
2023/08/06 01:06:12;;;;;;;15.15;10.20;;;15.00;99.90;;;;;;4960642;28;20494;-77
2023/08/06 01:08:57;;;;;;;11.65;9.30;;;15.00;99.90;;;;;;4960408;28;20042;-77
2023/08/06 01:11:44;;;;;;;13.40;9.70;;;15.00;99.90;;;;;;4975720;28;20194;-77
2023/08/06 01:14:30;;;;;;;12.57;9.15;;;15.00;99.90;;;;;;4955936;28;20490;-77
2023/08/06 01:16:58;;;;;;;11.27;9.20;;;15.00;99.90;;;;;;4958420;28;20503;-77
2023/08/06 01:19:24;;;;;;;11.25;9.15;;;15.00;99.90;;;;;;4959185;28;20049;-77
2023/08/06 01:21:50;;;;;;;13.10;9.93;;;15.00;99.90;;;;;;4977673;28;20042;-77
2023/08/06 01:24:17;;;;;;;12.55;9.15;;;15.00;99.90;;;;;;4950610;28;20125;-77
2023/08/06 01:26:48;;;;;;;14.65;9.82;;;15.00;99.90;;;;;;4972715;28;20045;-77
2023/08/06 01:29:30;;;;;;;12.18;9.35;;;15.00;99.90;;;;;;4992165;28;20039;-77
2023/08/06 01:31:58;;;;;;;11.57;9.43;;;15.00;99.90;;;;;;4957647;28;20045;-77
2023/08/06 01:34:28;;;;;;;11.25;9.18;;;15.00;99.90;;;;;;4968743;28;20045;-78
2023/08/06 01:36:54;;;;;;;14.48;9.27;;;15.00;99.90;;;;;;4958919;28;20053;-77
2023/08/06 01:39:21;;;;;;;14.70;9.68;;;14.90;99.90;;;;;;4990651;28;20046;-77
2023/08/06 01:41:47;;;;;;;11.98;9.50;;;14.90;99.90;;;;;;4971838;28;20506;-77
2023/08/06 01:44:14;;;;;;;16.20;9.95;;;14.90;99.90;;;;;;4972258;28;20034;-78
2023/08/06 01:46:40;;;;;;;13.23;10.15;;;14.90;99.90;;;;;;4977479;28;20399;-78
2023/08/06 01:49:06;;;;;;;16.25;10.60;;;14.90;99.90;;;;;;4956095;28;20121;-77
2023/08/06 01:51:31;;;;;;;15.90;10.65;;;15.00;99.90;;;;;;4970187;28;20049;-77
2023/08/06 01:53:57;;;;;;;15.68;10.63;;;14.90;99.90;;;;;;4981371;28;20038;-77
2023/08/06 01:56:22;;;;;;;13.18;10.40;;;14.90;99.90;;;;;;4973432;28;20630;-77
2023/08/06 01:58:48;;;;;;;16.20;9.90;;;15.10;99.90;;;;;;4971054;28;20446;-77
2023/08/06 02:01:14;;;;;;;14.90;10.93;;;14.90;99.90;;;;;;4994014;28;20121;-77
2023/08/06 02:03:39;;;;;;;15.05;10.30;;;14.90;99.90;;;;;;4987602;28;20046;-77
2023/08/06 02:06:05;;;;;;;12.70;10.45;;;14.90;99.90;;;;;;4969479;28;20034;-77
2023/08/06 02:08:31;;;;;;;15.25;10.85;;;14.90;99.90;;;;;;4966587;28;20043;-77
2023/08/06 02:10:58;;;;;;;14.57;11.05;;;14.90;99.90;;;;;;4990329;28;20046;-77
2023/08/06 02:13:23;;;;;;;14.90;10.73;;;14.90;99.90;;;;;;4954057;28;20043;-77
2023/08/06 02:15:49;;;;;;;15.55;10.90;;;14.90;99.90;;;;;;4992243;28;20112;-77
2023/08/06 02:18:16;;;;;;;13.93;11.13;;;14.90;99.90;;;;;;4961864;28;20069;-77
2023/08/06 02:20:42;;;;;;;15.93;11.13;;;14.90;99.90;;;;;;4988883;28;20053;-77
2023/08/06 02:23:08;;;;;;;16.88;11.70;;;14.80;99.90;;;;;;4957617;28;20407;-77
2023/08/06 02:25:37;;;;;;;13.52;10.95;;;14.80;99.90;;;;;;4992646;28;20038;-77
2023/08/06 02:28:02;;;;;;;15.52;10.77;;;14.80;99.90;;;;;;4963076;28;20454;-80
2023/08/06 02:30:28;;;;;;;14.93;10.50;;;14.80;99.90;;;;;;4968007;28;20113;-79
2023/08/06 02:32:54;;;;;;;16.60;9.80;;;14.80;99.90;;;;;;4963472;28;20521;-80
2023/08/06 02:35:20;;;;;;;18.70;9.95;;;14.90;99.90;;;;;;4955871;28;20108;-78
2023/08/06 02:37:46;;;;;;;17.23;11.30;;;14.90;99.90;;;;;;4968854;28;20050;-78
2023/08/06 02:40:11;;;;;;;14.23;10.18;;;14.80;99.90;;;;;;4957496;28;20070;-78
2023/08/06 02:42:37;;;;;;;13.60;10.68;;;14.90;99.90;;;;;;4993326;28;20045;-78
2023/08/06 02:45:04;;;;;;;12.90;10.18;;;14.80;99.90;;;;;;4981848;28;20056;-80
2023/08/06 02:47:31;;;;;;;13.18;9.98;;;14.80;99.90;;;;;;4995002;28;20038;-77
2023/08/06 02:49:57;;;;;;;14.82;10.30;;;14.70;99.90;;;;;;4976972;28;20043;-78
2023/08/06 02:52:23;;;;;;;12.95;10.20;;;14.90;99.90;;;;;;4954618;28;20096;-78
2023/08/06 02:54:48;;;;;;;15.25;9.65;;;14.70;99.90;;;;;;4974839;28;20125;-77
2023/08/06 02:57:14;;;;;;;15.95;10.35;;;14.70;99.90;;;;;;4990412;28;20045;-78
2023/08/06 02:59:39;;;;;;;13.23;9.90;;;14.70;99.90;;;;;;4949742;28;20043;-78
2023/08/06 03:02:06;;;;;;;12.82;9.43;;;14.70;99.90;;;;;;4961846;28;20050;-78
2023/08/06 03:04:32;;;;;;;12.57;10.23;;;14.70;99.90;;;;;;4982486;28;20049;-78
2023/08/06 03:06:57;;;;;;;14.05;9.50;;;14.60;99.90;;;;;;4984460;28;20499;-78
2023/08/06 03:09:23;;;;;;;16.52;9.68;;;14.60;99.90;;;;;;4983280;28;20034;-78
2023/08/06 03:11:48;;;;;;;14.75;9.75;;;14.70;99.90;;;;;;4992178;28;20078;-78
2023/08/06 03:14:14;;;;;;;12.95;9.65;;;14.90;99.90;;;;;;4978472;28;20178;-77
2023/08/06 03:16:40;;;;;;;13.57;10.40;;;15.00;99.90;;;;;;4991980;28;20042;-77
2023/08/06 03:19:06;;;;;;;13.25;10.32;;;14.70;99.90;;;;;;4985895;28;20514;-77
2023/08/06 03:21:32;;;;;;;14.07;10.02;;;14.70;99.90;;;;;;4969886;28;20054;-78
2023/08/06 03:23:57;;;;;;;13.10;9.85;;;14.70;99.90;;;;;;4966689;28;20053;-78
2023/08/06 03:26:23;;;;;;;13.30;9.48;;;14.70;99.90;;;;;;4987685;28;20046;-77
2023/08/06 03:28:48;;;;;;;12.88;9.32;;;14.80;99.90;;;;;;4991612;28;20043;-77
2023/08/06 03:31:14;;;;;;;12.75;9.23;;;14.90;99.90;;;;;;4993495;28;20116;-78
2023/08/06 03:33:39;;;;;;;13.35;9.52;;;15.10;99.90;;;;;;4990853;28;20485;-78
2023/08/06 03:36:05;;;;;;;12.40;9.18;;;14.70;99.90;;;;;;4974738;28;20042;-78
2023/08/06 03:38:33;;;;;;;12.73;9.10;;;14.70;99.90;;;;;;4957690;28;20558;-78
2023/08/06 03:40:59;;;;;;;14.93;9.48;;;15.10;99.90;;;;;;4976085;28;20479;-78
2023/08/06 03:43:24;;;;;;;11.90;9.15;;;14.70;99.90;;;;;;4966335;28;20117;-78
2023/08/06 03:45:52;;;;;;;13.35;9.02;;;14.70;99.90;;;;;;4985571;28;20030;-79
2023/08/06 03:48:18;;;;;;;14.50;9.68;;;14.70;99.90;;;;;;4967373;28;20048;-78
2023/08/06 03:50:43;;;;;;;12.07;9.00;;;14.70;99.90;;;;;;4968878;28;20037;-79
2023/08/06 03:53:09;;;;;;;12.05;9.45;;;14.70;99.90;;;;;;4982076;28;20038;-79
2023/08/06 03:55:35;;;;;;;11.57;9.60;;;14.70;99.90;;;;;;4986948;28;20042;-79
2023/08/06 03:58:00;;;;;;;14.35;9.77;;;14.70;99.90;;;;;;4962708;28;20515;-79
2023/08/06 04:00:26;;;;;;;13.40;9.65;;;15.00;99.90;;;;;;4967594;28;20406;-79
2023/08/06 04:02:51;;;;;;;14.60;9.70;;;14.70;99.90;;;;;;4977634;28;20046;-78
2023/08/06 04:05:18;;;;;;;12.25;9.23;;;14.70;99.90;;;;;;4957587;28;20043;-78
2023/08/06 04:07:43;;;;;;;12.88;9.55;;;14.70;99.90;;;;;;4942937;28;20039;-78
2023/08/06 04:10:09;;;;;;;11.90;9.30;;;14.70;99.90;;;;;;4974742;28;20035;-78
2023/08/06 04:12:38;;;;;;;16.83;10.35;;;14.60;99.90;;;;;;4988179;28;20430;-79
2023/08/06 04:15:04;;;;;;;18.33;10.45;;;14.80;99.90;;;;;;4972332;28;20038;-79
2023/08/06 04:17:29;;;;;;;14.20;9.45;;;14.80;99.90;;;;;;4972935;28;20053;-78
2023/08/06 04:19:59;;;;;;;12.40;8.98;;;14.90;99.90;;;;;;4973409;28;20030;-79
2023/08/06 04:22:27;;;;;;;13.48;9.48;;;14.70;99.90;;;;;;4968736;28;20054;-78
2023/08/06 04:24:54;;;;;;;13.10;9.98;;;14.80;99.90;;;;;;4965347;28;20042;-80
2023/08/06 04:27:20;;;;;;;13.23;9.55;;;14.80;99.90;;;;;;4980941;28;20046;-79
2023/08/06 04:29:46;;;;;;;13.55;9.35;;;14.80;99.90;;;;;;4982236;28;20068;-79
2023/08/06 04:32:12;;;;;;;14.73;10.25;;;14.80;99.90;;;;;;4956419;28;20476;-79
2023/08/06 04:34:38;;;;;;;12.18;10.13;;;15.20;99.90;;;;;;4967704;28;20042;-79
2023/08/06 04:37:04;;;;;;;12.48;10.10;;;14.90;99.90;;;;;;4970909;28;20119;-79
2023/08/06 04:39:30;;;;;;;13.23;10.07;;;14.80;99.90;;;;;;4986177;28;20053;-80
2023/08/06 04:41:59;;;;;;;13.82;10.13;;;15.30;99.90;;;;;;4993946;28;20077;-79
2023/08/06 04:44:25;;;;;;;12.32;9.57;;;15.00;99.90;;;;;;4995047;28;20081;-79
2023/08/06 04:46:51;;;;;;;13.68;10.20;;;14.80;99.90;;;;;;4950907;28;20105;-79
2023/08/06 04:49:17;;;;;;;13.60;9.90;;;14.80;99.90;;;;;;4961701;28;20124;-78
2023/08/06 04:51:43;;;;;;;13.93;10.25;;;14.70;99.90;;;;;;5006624;28;20054;-78
2023/08/06 04:54:09;;;;;;;14.23;10.00;;;14.90;99.90;;;;;;4966694;28;20038;-78
2023/08/06 04:56:35;;;;;;;13.07;10.00;;;14.70;99.90;;;;;;4962036;28;20185;-78
2023/08/06 04:59:01;;;;;;;13.55;10.07;;;14.90;99.90;;;;;;4984030;28;20546;-78
2023/08/06 05:01:26;;;;;;;14.68;9.90;;;14.90;99.90;;;;;;4974737;28;20522;-79
2023/08/06 05:03:52;;;;;;;14.35;10.30;;;15.10;99.90;;;;;;4990578;28;20037;-79
2023/08/06 05:06:18;;;;;;;16.27;10.20;;;14.90;99.90;;;;;;4967621;28;20030;-79
2023/08/06 05:08:43;;;;;;;13.07;9.93;;;14.90;99.90;;;;;;4967210;28;20066;-79
2023/08/06 05:11:09;;;;;;;11.95;9.80;;;14.90;99.90;;;;;;4991272;28;20046;-78
2023/08/06 05:13:35;;;;;;;13.48;10.18;;;14.90;99.90;;;;;;4981454;28;20039;-79
2023/08/06 05:16:01;;;;;;;12.27;9.70;;;15.00;99.90;;;;;;4942836;28;20080;-79
2023/08/06 05:18:27;;;;;;;14.40;10.10;;;15.00;99.90;;;;;;4969939;28;20053;-79
2023/08/06 05:20:58;;;;;;;13.57;9.93;;;15.00;99.90;;;;;;4975005;28;20399;-79
2023/08/06 05:23:24;;;;;;;12.95;9.98;;;15.40;99.90;;;;;;4988372;28;20101;-79
2023/08/06 05:25:50;;;;;;;14.05;10.10;;;15.10;99.90;;;;;;4956125;28;20038;-79
2023/08/06 05:28:15;;;;;;;13.15;9.73;;;15.10;99.90;;;;;;4976393;28;20035;-79
2023/08/06 05:30:44;;;;;;;12.20;9.23;;;15.10;99.90;;;;;;4991356;28;20491;-80
2023/08/06 05:33:10;;;;;;;16.73;10.25;;;15.00;99.90;;;;;;4985161;28;20256;-79
2023/08/06 05:35:37;;;;;;;13.50;9.73;;;15.10;99.90;;;;;;4993463;28;20034;-80
2023/08/06 05:38:02;;;;;;;14.13;9.85;;;14.80;99.90;;;;;;4999766;28;20230;-79
2023/08/06 05:40:28;;;;;;;13.38;9.10;;;15.10;99.90;;;;;;5004917;28;20113;-79
2023/08/06 05:42:54;;;;;;;11.05;9.10;;;15.20;99.90;;;;;;4995287;28;20042;-79
2023/08/06 05:45:20;;;;;;;12.15;9.75;;;15.30;99.90;;;;;;4968194;28;20061;-79
2023/08/06 05:47:48;;;;;;;10.38;9.20;;;15.20;99.90;;;;;;4977650;28;20042;-79
2023/08/06 05:50:13;;;;;;;13.48;9.80;;;15.40;99.90;;;;;;4974035;28;20078;-79
2023/08/06 05:52:39;;;;;;;11.65;9.02;;;15.30;99.90;;;;;;4977420;28;20588;-79
2023/08/06 05:55:05;;;;;;;13.27;9.45;;;15.30;99.90;;;;;;4979030;28;20121;-79
2023/08/06 05:57:31;;;;;;;13.48;9.80;;;15.30;99.90;;;;;;4988933;28;20034;-80
2023/08/06 05:59:56;;;;;;;12.80;10.50;;;15.30;99.90;;;;;;4990415;28;20030;-79
2023/08/06 06:02:22;;;;;;;13.23;10.30;;;15.30;99.90;;;;;;4959486;28;20046;-79
2023/08/06 06:04:48;;;;;;;15.27;9.52;;;15.30;99.90;;;;;;5014545;23;20057;-67
2023/08/06 06:07:14;;;;;;;12.35;9.90;;;15.30;99.90;;;;;;5028862;28;20037;-65
2023/08/06 06:09:39;;;;;;;11.93;10.00;;;15.30;99.90;;;;;;5034462;28;20076;-63
2023/08/06 06:12:06;;;;;;;12.45;10.52;;;15.40;99.90;;;;;;5030595;28;20061;-64
2023/08/06 06:14:32;;;;;;;12.02;10.27;;;15.30;99.90;;;;;;5028040;28;20044;-65
2023/08/06 06:16:58;;;;;;;12.57;10.35;;;15.40;99.90;;;;;;5032762;28;20087;-64
2023/08/06 06:19:24;;;;;;;14.20;10.15;;;15.40;99.90;;;;;;5031980;28;20048;-64
2023/08/06 06:21:50;;;;;;;12.77;10.60;;;15.50;99.90;;;;;;5044060;28;20037;-65
2023/08/06 06:24:15;;;;;;;12.05;10.38;;;15.50;99.90;;;;;;5037732;28;20040;-65
2023/08/06 06:26:41;;;;;;;12.80;10.63;;;15.50;99.90;;;;;;5030062;28;20093;-64
2023/08/06 06:29:06;;;;;;;11.35;10.13;;;15.60;99.90;;;;;;5022402;28;20037;-63
2023/08/06 06:31:32;;;;;;;14.52;10.43;;;15.50;99.90;;;;;;5036728;28;20037;-64
2023/08/06 06:33:58;;;;;;;12.77;10.85;;;15.60;99.90;;;;;;5035521;28;20091;-65
2023/08/06 06:36:24;;;;;;;16.30;10.85;;;15.60;99.90;;;;;;5036786;28;20037;-64
2023/08/06 06:38:49;;;;;;;15.32;12.40;;;15.60;99.90;;;;;;5040662;28;20120;-63
2023/08/06 06:41:15;;;;;;;11.93;10.32;;;15.50;99.90;;;;;;5040206;28;20501;-64
2023/08/06 06:43:41;;;;;;;16.65;11.70;;;15.60;99.90;;;;;;5025044;28;20045;-65
2023/08/06 06:46:07;;;;;;;17.20;12.05;;;15.50;99.90;;;;;;5031020;28;20551;-65
2023/08/06 06:48:33;;;;;;;14.30;11.00;;;15.50;99.90;;;;;;5030921;28;20167;-64
2023/08/06 06:50:59;;;;;;;15.48;11.63;;;15.50;99.90;;;;;;5032838;28;20112;-64
2023/08/06 06:53:27;;;;;;;13.00;10.85;;;15.50;99.90;;;;;;4999471;28;20164;-64
2023/08/06 06:55:54;;;;;;;14.30;11.70;;;15.50;99.90;;;;;;5016348;28;20034;-65
2023/08/06 06:58:19;;;;;;;14.10;10.88;;;15.60;99.90;;;;;;5006057;28;20042;-64
2023/08/06 07:00:47;;;;;;;14.47;11.80;;;15.60;99.90;;;;;;5020024;28;20048;-65
2023/08/06 07:03:12;;;;;;;16.10;12.85;;;15.60;99.90;;;;;;5012496;28;20037;-62
2023/08/06 07:05:38;;;;;;;14.88;11.77;;;15.60;99.90;;;;;;5029593;28;20238;-63
2023/08/06 07:08:04;;;;;;;14.85;12.55;;;15.60;99.90;;;;;;5021715;28;20037;-64
2023/08/06 07:10:29;;;;;;;17.35;13.10;;;15.60;99.90;;;;;;5017277;28;20037;-64
2023/08/06 07:12:55;;;;;;;16.50;13.10;;;15.70;99.90;;;;;;5010632;28;20049;-64
2023/08/06 07:15:20;;;;;;;14.80;12.45;;;15.60;99.90;;;;;;5032773;28;20075;-64
2023/08/06 07:17:46;;;;;;;14.38;12.48;;;15.60;99.90;;;;;;5007827;28;20459;-64
2023/08/06 07:20:12;;;;;;;14.45;12.95;;;15.70;99.90;;;;;;5026181;28;20240;-65
2023/08/06 07:22:37;;;;;;;16.40;12.55;;;15.70;99.90;;;;;;5019032;28;20040;-64
2023/08/06 07:25:03;;;;;;;16.13;13.52;;;15.70;99.90;;;;;;5008224;28;20080;-65
2023/08/06 07:27:29;;;;;;;15.68;12.57;;;15.80;99.90;;;;;;5024559;28;20030;-64
2023/08/06 07:29:54;;;;;;;14.77;11.93;;;15.80;99.90;;;;;;5037372;28;20042;-62
2023/08/06 07:32:20;;;;;;;15.25;12.77;;;15.80;99.90;;;;;;5032842;28;20037;-65
2023/08/06 07:34:46;;;;;;;13.73;11.90;;;15.90;99.90;;;;;;5027607;28;20034;-65
2023/08/06 07:37:11;;;;;;;13.85;11.98;;;15.90;99.90;;;;;;5012293;28;20430;-63
2023/08/06 07:39:39;;;;;;;14.68;13.10;;;15.90;99.90;;;;;;5013461;28;20143;-63
2023/08/06 07:42:06;;;;;;;14.30;12.80;;;15.90;99.90;;;;;;5021223;28;20048;-64
2023/08/06 07:44:32;;;;;;;15.43;13.07;;;15.90;99.90;;;;;;5031731;28;20076;-65
2023/08/06 07:46:58;;;;;;;16.23;13.30;;;16.00;99.90;;;;;;5028845;28;20040;-64
2023/08/06 07:49:24;;;;;;;16.67;14.88;;;16.00;99.90;;;;;;5010536;28;20398;-64
2023/08/06 07:51:51;;;;;;;15.32;13.45;;;16.00;99.90;;;;;;5030401;28;20120;-64
2023/08/06 07:54:17;;;;;;;14.88;13.27;;;16.00;99.90;;;;;;5032724;28;20411;-65
2023/08/06 07:56:43;;;;;;;14.98;13.30;;;16.00;99.90;;;;;;5035198;28;20052;-64
2023/08/06 07:59:09;;;;;;;15.35;13.30;;;16.00;99.90;;;;;;5007843;28;20093;-65
2023/08/06 08:01:35;;;;;;;15.13;13.00;;;16.00;99.90;;;;;;5021987;28;20037;-65
2023/08/06 08:04:00;;;;;;;15.25;12.32;;;16.10;99.90;;;;;;5001717;28;20029;-64
2023/08/06 08:06:26;;;;;;;16.60;12.85;;;16.10;99.90;;;;;;5016017;28;20192;-64
2023/08/06 08:08:52;;;;;;;14.95;13.35;;;16.20;99.90;;;;;;5019021;28;20041;-65
2023/08/06 08:11:18;;;;;;;15.63;13.75;;;16.20;99.90;;;;;;5017957;28;20554;-65
2023/08/06 08:13:44;;;;;;;14.80;13.20;;;16.20;99.90;;;;;;5017121;28;20199;-65
2023/08/06 08:16:10;;;;;;;16.13;13.90;;;16.20;99.90;;;;;;5019444;28;20044;-64
2023/08/06 08:18:35;;;;;;;17.25;15.00;;;16.20;99.90;;;;;;5015310;28;20049;-65
2023/08/06 08:21:01;;;;;;;16.65;14.82;;;16.30;99.90;;;;;;5016418;28;20036;-64
2023/08/06 08:23:27;;;;;;;18.10;14.93;;;16.30;99.90;;;;;;5016521;28;20036;-65
2023/08/06 08:25:52;;;;;;;17.27;14.93;;;16.30;99.90;;;;;;5012123;28;20030;-63
2023/08/06 08:28:18;;;;;;;20.17;15.23;;;16.30;99.90;;;;;;4997077;28;20046;-64
2023/08/06 08:30:44;;;;;;;18.15;14.88;;;16.40;99.90;;;;;;5012170;28;20523;-64
2023/08/06 08:33:09;;;;;;;17.75;13.55;;;16.40;99.90;;;;;;5018207;28;20061;-65
2023/08/06 08:35:36;;;;;;;15.15;13.40;;;16.50;99.90;;;;;;4998600;28;20050;-64
2023/08/06 08:38:02;;;;;;;15.43;13.32;;;16.60;99.90;;;;;;5012883;28;20044;-64
2023/08/06 08:40:32;;;;;;;14.90;12.85;;;16.60;99.90;;;;;;5021653;28;20041;-65
2023/08/06 08:42:59;;;;;;;14.88;12.40;;;16.70;99.90;;;;;;5008604;28;20074;-65
2023/08/06 08:45:28;;;;;;;15.35;12.05;;;16.70;99.90;;;;;;5033689;28;20083;-63
2023/08/06 08:47:54;;;;;;;16.17;11.50;;;16.80;99.90;;;;;;5006577;28;20411;-65
2023/08/06 08:50:21;;;;;;;13.40;11.48;;;16.90;99.90;;;;;;5031948;28;20047;-65
2023/08/06 08:52:50;;;;;;;15.98;11.65;;;17.00;99.90;;;;;;5006339;28;20050;-65
2023/08/06 08:55:16;;;;;;;13.02;11.05;;;17.10;99.90;;;;;;5026982;28;20053;-65
2023/08/06 08:57:43;;;;;;;13.50;10.65;;;17.10;99.90;;;;;;5025122;28;20046;-65
2023/08/06 09:00:09;;;;;;;11.98;10.70;;;17.20;99.90;;;;;;5021048;28;20088;-66
2023/08/06 09:02:37;;;;;;;11.90;10.48;;;17.30;99.90;;;;;;5019130;28;20045;-65
2023/08/06 09:05:05;;;;;;;11.10;9.98;;;17.30;99.90;;;;;;5039840;28;20037;-64
2023/08/06 09:07:45;;;;;;;11.50;10.30;;;17.40;99.90;;;;;;5027842;28;20082;-66
2023/08/06 09:10:13;;;;;;;12.43;9.73;;;17.40;99.90;;;;;;5038242;28;20397;-65
2023/08/06 09:12:39;;;;;;;10.93;9.70;;;17.50;99.90;;;;;;5012774;28;20041;-65
2023/08/06 09:15:05;;;;;;;11.05;9.27;;;17.60;99.90;;;;;;5012712;28;20041;-65
2023/08/06 09:17:31;;;;;;;14.18;9.65;;;17.60;99.90;;;;;;5009656;28;20037;-65
2023/08/06 09:19:57;;;;;;;10.68;9.32;;;17.70;99.90;;;;;;5026162;28;20083;-65
2023/08/06 09:22:23;;;;;;;11.13;8.80;;;17.80;99.90;;;;;;5010601;28;20044;-65
2023/08/06 09:24:49;;;;;;;10.35;8.52;;;17.80;99.90;;;;;;5029507;28;20029;-64
2023/08/06 09:27:15;;;;;;;9.57;8.43;;;17.90;99.90;;;;;;5030875;28;20033;-64
2023/08/06 09:29:45;;;;;;;12.05;9.00;;;17.90;99.90;;;;;;5037622;28;20131;-64
2023/08/06 09:32:13;;;;;;;11.85;8.95;;;18.00;99.90;;;;;;5041057;28;20120;-64
2023/08/06 09:34:42;;;;;;;9.55;8.43;;;18.00;99.90;;;;;;5016642;28;20047;-64
2023/08/06 09:37:09;;;;;;;10.13;8.60;;;18.00;99.90;;;;;;5014177;28;20052;-65
2023/08/06 09:39:35;;;;;;;11.10;9.00;;;18.00;99.90;;;;;;5039109;28;20057;-65
2023/08/06 09:42:02;;;;;;;10.23;8.75;;;18.10;99.90;;;;;;5041621;28;20040;-64
2023/08/06 09:44:29;;;;;;;10.13;8.85;;;18.10;99.90;;;;;;5039822;28;20037;-65
2023/08/06 09:46:56;;;;;;;12.85;8.88;;;18.10;99.90;;;;;;5024856;28;20487;-64
2023/08/06 09:49:27;;;;;;;10.23;8.15;;;18.20;99.90;;;;;;5027667;28;20029;-65
2023/08/06 09:51:55;;;;;;;9.02;8.02;;;18.20;99.90;;;;;;5013804;28;20045;-65
2023/08/06 09:54:24;;;;;;;9.82;8.10;;;18.30;99.90;;;;;;5046533;28;20075;-64
2023/08/06 09:56:50;;;;;;;10.57;7.82;;;18.30;99.90;;;;;;5033049;28;20834;-65
2023/08/06 09:59:18;;;;;;;8.73;7.72;;;18.40;99.90;;;;;;5024763;28;20047;-66
2023/08/06 10:01:44;;;;;;;9.32;7.90;;;18.50;99.90;;;;;;5027256;28;20046;-64
2023/08/06 10:04:11;;;;;;;8.77;7.45;;;18.50;99.90;;;;;;5037433;28;20037;-64
2023/08/06 10:06:37;;;;;;;9.82;7.95;;;18.60;99.90;;;;;;5039599;28;20118;-64
2023/08/06 10:09:04;;;;;;;8.68;6.97;;;18.60;99.90;;;;;;5041646;28;20057;-63
2023/08/06 10:11:30;;;;;;;8.98;6.85;;;18.70;99.90;;;;;;5032915;28;20545;-64
2023/08/06 10:14:12;;;;;;;9.05;6.95;;;18.70;99.90;;;;;;5028673;28;20484;-64
2023/08/06 10:16:40;;;;;;;9.98;6.85;;;18.80;99.90;;;;;;5022090;28;20124;-64
2023/08/06 10:19:08;;;;;;;7.97;7.05;;;18.80;99.90;;;;;;5025472;28;20488;-64
2023/08/06 10:21:34;;;;;;;7.53;6.22;;;18.90;99.90;;;;;;5009518;28;20049;-64
2023/08/06 10:24:01;;;;;;;7.18;6.40;;;19.00;99.90;;;;;;5023661;28;20041;-62
2023/08/06 10:26:28;;;;;;;8.57;6.63;;;19.10;99.90;;;;;;5027731;28;20044;-64
2023/08/06 10:28:54;;;;;;;8.57;7.57;;;19.20;99.90;;;;;;5024043;28;20060;-63
2023/08/06 10:31:40;;;;;;;7.65;6.53;;;19.20;99.90;;;;;;5028284;28;20037;-64
2023/08/06 10:34:07;;;;;;;10.05;6.82;;;19.30;99.90;;;;;;5030378;28;20047;-63
2023/08/06 10:36:33;;;;;;;10.32;6.55;;;19.40;99.90;;;;;;5025133;28;20526;-64
2023/08/06 10:38:58;;;;;;;6.47;5.88;;;19.40;99.90;;;;;;5032029;28;20061;-64
2023/08/06 10:41:28;;;;;;;7.80;6.07;;;19.50;99.90;;;;;;5022573;28;20491;-63
2023/08/06 10:44:10;;;;;;;6.20;5.60;;;19.50;99.90;;;;;;5034871;28;20065;-63
2023/08/06 10:46:37;;;;;;;9.50;6.18;;;19.60;99.90;;;;;;5015177;28;20083;-64
2023/08/06 10:49:04;;;;;;;8.07;5.93;;;19.60;99.90;;;;;;5031614;28;20040;-64
2023/08/06 10:51:30;;;;;;;9.95;6.60;;;19.60;99.90;;;;;;5016800;28;20077;-64
2023/08/06 10:53:57;;;;;;;7.03;5.60;;;19.60;99.90;;;;;;5019224;28;20068;-64
2023/08/06 10:56:27;;;;;;;7.32;5.80;;;19.70;99.90;;;;;;5023508;28;20502;-65
2023/08/06 10:58:59;;;;;;;6.00;5.38;;;19.70;99.90;;;;;;5012466;28;20052;-65
2023/08/06 11:01:28;;;;;;;;;;;19.80;99.90;;;;;;5017524;28;20037;-64
2023/08/06 11:03:54;;;;;;;6.47;5.05;;;19.90;99.90;;;;;;5021508;28;19921;-65
2023/08/06 11:06:22;;;;;;;6.47;5.28;;;20.00;99.90;;;;;;5011872;28;20462;-65
2023/08/06 11:08:53;;;;;;;5.97;4.95;;;20.10;99.90;;;;;;5035831;28;20044;-65
2023/08/06 11:11:19;;;;;;;5.68;4.80;;;20.10;99.90;;;;;;5030869;28;20072;-65
2023/08/06 11:13:49;;;;;;;6.00;4.55;;;20.30;99.90;;;;;;5036426;28;20033;-65
2023/08/06 11:16:24;;;;;;;5.40;4.32;;;20.50;99.90;;;;;;5034393;28;20030;-64
2023/08/06 11:18:50;;;;;;;5.78;4.32;;;20.70;99.90;;;;;;5019473;28;20489;-65
2023/08/06 11:21:21;;;;;;;4.90;4.13;;;21.00;99.90;;;;;;5010982;28;20053;-64
2023/08/06 11:23:47;;;;;;;5.65;4.20;;;21.30;99.90;;;;;;5010142;28;20090;-65
2023/08/06 11:26:23;;;;;;;5.35;3.90;;;21.60;99.90;;;;;;5034178;28;20077;-64
2023/08/06 11:28:49;;;;;;;5.07;3.97;;;22.00;99.90;;;;;;5033571;28;20061;-65
2023/08/06 11:31:22;;;;;;;;;;;22.40;99.90;;;;;;5016980;28;20053;-66
2023/08/06 11:33:48;;;;;;;;;;;22.80;99.90;;;;;;5004564;28;19980;-65
2023/08/06 11:36:13;;;;;;;;;;;23.20;99.90;;;;;;5036050;28;19921;-63
2023/08/06 11:38:39;;;;;;;;;;;23.50;99.90;;;;;;5027763;28;19927;-66
2023/08/06 11:41:06;;;;;;;;;;;23.90;99.90;;;;;;5024153;28;19916;-66
2023/08/06 11:43:32;;;;;;;;;;;24.00;99.90;;;;;;5010915;28;19917;-63
2023/08/06 11:46:00;;;;;;;;;;;24.10;99.90;;;;;;5038699;28;20028;-65
2023/08/06 11:48:25;;;;;;;;;;;24.10;99.90;;;;;;5024414;28;20386;-65
2023/08/06 11:50:54;;;;;;;;;;;24.00;99.90;;;;;;5012722;28;19964;-65
2023/08/06 11:53:19;;;;;;;4.38;2.90;;;23.80;99.90;;;;;;5028970;28;19921;-65
2023/08/06 11:55:45;;;;;;;3.83;2.97;;;23.60;99.90;;;;;;5031699;28;20048;-65
2023/08/06 11:58:11;;;;;;;3.90;2.80;;;23.40;99.90;;;;;;5029651;28;20387;-65
2023/08/06 12:00:37;;;;;;;4.50;3.00;;;23.30;99.90;;;;;;5031904;28;20503;-65
2023/08/06 12:03:05;;;;;;;3.17;2.50;;;23.40;99.90;;;;;;5025886;28;20051;-65
2023/08/06 12:05:33;;;;;;;3.30;2.47;;;23.40;99.90;;;;;;5045259;22;20051;-62
2023/08/06 12:08:00;;;;;;;3.13;2.30;;;23.50;99.90;;;;;;5051080;28;20490;-63
2023/08/06 12:10:28;;;;;;;5.03;2.75;;;23.50;99.90;;;;;;5045427;28;20509;-63
2023/08/06 12:12:54;;;;;;;3.42;3.08;;;23.30;99.90;;;;;;5045402;28;20041;-66
2023/08/06 12:15:20;;;;;;;3.83;2.45;;;23.20;99.90;;;;;;5052835;28;20105;-63
2023/08/06 12:17:46;;;;;;;3.70;2.80;;;22.90;99.90;;;;;;5053654;28;20502;-62
2023/08/06 12:20:12;;;;;;;3.65;2.80;;;22.70;99.90;;;;;;5040124;28;20183;-63
2023/08/06 12:22:39;;;;;;;3.78;2.50;;;22.50;99.90;;;;;;5051232;28;20057;-63
2023/08/06 12:25:07;;;;;;;4.40;2.40;;;22.30;99.90;;;;;;5050406;28;20055;-65
2023/08/06 12:27:36;;;;;;;4.03;2.72;;;22.20;99.90;;;;;;5052187;28;20413;-65
2023/08/06 12:30:03;;;;;;;3.53;2.40;;;22.20;99.90;;;;;;5045163;28;20037;-63
2023/08/06 12:32:29;;;;;;;4.18;2.83;;;22.00;99.90;;;;;;5036423;28;20044;-63
2023/08/06 12:34:55;;;;;;;4.78;3.35;;;21.90;99.90;;;;;;5041071;28;20041;-63